Time;durP1;ratioP1;P1;durP2;ratioP2;P2;SDS_P1;SDS_P2;PMS_P1;PMS_P2;Temp;Humidity;BMP_temperature;BMP_pressure;BME280_temperature;BME280_humidity;BME280_pressure;Samples;Min_cycle;Max_cycle;Signal;HPM_P1;HPM_P2
2022/06/07 00:00:16;;;;;;;31.48;22.55;;;;;;;12.52;100.00;101194.31;5210312;28;20109;-66
2022/06/07 00:02:48;;;;;;;31.00;22.70;;;;;;;12.58;100.00;101182.28;5213216;28;20026;-65
2022/06/07 00:05:19;;;;;;;28.70;22.02;;;;;;;12.53;100.00;101182.66;5206158;28;20034;-65
2022/06/07 00:07:53;;;;;;;29.13;22.55;;;;;;;12.57;100.00;101176.06;5210849;28;20625;-66
2022/06/07 00:10:26;;;;;;;33.25;23.65;;;;;;;12.62;100.00;101181.91;5215959;28;20022;-65
2022/06/07 00:12:57;;;;;;;38.05;23.90;;;;;;;12.64;100.00;101177.28;5214493;28;20030;-65
2022/06/07 00:15:28;;;;;;;31.60;23.38;;;;;;;12.61;100.00;101172.16;5210802;28;20032;-65
2022/06/07 00:18:00;;;;;;;31.95;24.90;;;;;;;12.57;100.00;101176.06;5213647;28;20049;-66
2022/06/07 00:20:33;;;;;;;33.60;24.20;;;;;;;12.50;100.00;101167.69;5208015;28;20030;-65
2022/06/07 00:23:08;;;;;;;33.28;25.05;;;;;;;12.62;100.00;101168.53;5214946;28;20024;-65
2022/06/07 00:25:42;;;;;;;33.55;24.60;;;;;;;12.62;100.00;101164.97;5201785;28;20069;-65
2022/06/07 00:28:14;;;;;;;37.03;25.98;;;;;;;12.61;100.00;101160.63;5215476;28;20061;-65
2022/06/07 00:30:45;;;;;;;36.53;26.17;;;;;;;12.53;100.00;101161.22;5201548;28;20105;-65
2022/06/07 00:33:18;;;;;;;37.03;27.00;;;;;;;12.50;100.00;101161.47;5213782;28;20022;-65
2022/06/07 00:35:49;;;;;;;37.20;26.30;;;;;;;12.53;100.00;101150.53;5204749;28;20038;-65
2022/06/07 00:38:21;;;;;;;34.63;25.33;;;;;;;12.54;100.00;101150.41;5205010;28;20027;-65
2022/06/07 00:40:52;;;;;;;36.20;26.25;;;;;;;12.55;100.00;101146.75;5211300;28;20455;-65
2022/06/07 00:43:24;;;;;;;31.70;25.42;;;;;;;12.55;100.00;101141.38;5200909;28;20022;-65
2022/06/07 00:45:57;;;;;;;31.98;25.02;;;;;;;12.58;100.00;101142.13;5209017;28;20032;-65
2022/06/07 00:48:28;;;;;;;32.72;25.15;;;;;;;12.47;100.00;101137.66;5198888;28;20058;-65
2022/06/07 00:51:09;;;;;;;30.48;23.02;;;;;;;12.57;100.00;101143.94;5214751;28;20057;-65
2022/06/07 00:53:41;;;;;;;32.25;23.98;;;;;;;12.42;100.00;101135.31;5213567;28;20057;-66
2022/06/07 00:56:12;;;;;;;30.30;23.00;;;;;;;12.33;100.00;101130.69;5202939;28;20028;-66
2022/06/07 00:58:43;;;;;;;31.15;23.33;;;;;;;12.38;100.00;101130.34;5202478;28;20334;-65
2022/06/07 01:01:15;;;;;;;31.60;23.58;;;;;;;12.31;100.00;101125.50;5203890;28;20041;-65
2022/06/07 01:03:46;;;;;;;29.77;22.30;;;;;;;12.41;100.00;101125.59;5216253;28;20051;-65
2022/06/07 01:11:57;;;;;;;28.38;21.83;;;;;;;12.50;100.00;101121.31;5211556;28;20038;-66
2022/06/07 01:14:28;;;;;;;28.17;21.90;;;;;;;12.50;100.00;101122.19;5209077;28;20018;-65
2022/06/07 01:16:59;;;;;;;28.20;21.38;;;;;;;12.54;100.00;101120.09;5210608;28;20076;-65
2022/06/07 01:19:31;;;;;;;22.80;19.00;;;;;;;12.43;100.00;101122.81;5199809;28;20485;-65
2022/06/07 01:22:02;;;;;;;21.98;18.40;;;;;;;12.36;100.00;101125.09;5211485;28;20126;-66
2022/06/07 01:24:33;;;;;;;22.45;17.60;;;;;;;12.33;100.00;101120.88;5212160;28;20030;-65
2022/06/07 01:27:06;;;;;;;22.17;17.70;;;;;;;12.34;100.00;101117.19;5201530;28;20276;-65
2022/06/07 01:29:39;;;;;;;22.67;17.80;;;;;;;12.45;100.00;101113.69;5203292;28;20354;-66
2022/06/07 01:32:12;;;;;;;20.85;16.95;;;;;;;12.46;100.00;101117.19;5202674;28;20034;-66
2022/06/07 01:34:44;;;;;;;18.42;15.52;;;;;;;12.36;100.00;101115.25;5212568;28;20094;-66
2022/06/07 01:37:18;;;;;;;20.10;15.70;;;;;;;12.41;100.00;101116.72;5205649;28;20022;-66
2022/06/07 01:42:39;;;;;;;23.55;17.27;;;;;;;12.39;100.00;101105.28;5208926;28;20034;-66
2022/06/07 01:45:11;;;;;;;21.08;15.35;;;;;;;12.32;100.00;101110.28;5201829;28;20365;-66
2022/06/07 01:47:42;;;;;;;18.80;15.95;;;;;;;12.41;100.00;101108.69;5211017;28;20107;-66
2022/06/07 01:50:13;;;;;;;23.50;15.55;;;;;;;12.42;100.00;101102.38;5211160;28;20475;-65
2022/06/07 01:52:45;;;;;;;18.35;14.30;;;;;;;12.34;100.00;101098.47;5197433;28;20054;-66
2022/06/07 01:55:16;;;;;;;18.70;15.20;;;;;;;12.38;100.00;101100.91;5211713;28;20100;-66
2022/06/07 01:57:47;;;;;;;19.83;14.13;;;;;;;12.41;100.00;101090.81;5216894;28;20018;-65
2022/06/07 02:00:19;;;;;;;16.63;12.57;;;;;;;12.29;100.00;101098.00;5217043;28;20538;-66
2022/06/07 02:02:50;;;;;;;16.75;12.55;;;;;;;12.26;100.00;101098.25;5201944;28;20392;-66
2022/06/07 02:05:21;;;;;;;17.77;11.75;;;;;;;12.23;100.00;101090.44;5212436;28;20033;-65
2022/06/07 02:07:53;;;;;;;15.52;11.85;;;;;;;12.20;100.00;101098.72;5207847;28;20503;-65
2022/06/07 02:10:24;;;;;;;16.38;10.20;;;;;;;12.15;100.00;101092.88;5218608;28;20317;-66
2022/06/07 02:12:56;;;;;;;15.15;10.95;;;;;;;12.18;100.00;101098.00;5203647;28;20034;-65
2022/06/07 02:15:27;;;;;;;14.68;11.10;;;;;;;12.17;100.00;101090.94;5214078;28;20774;-65
2022/06/07 02:17:58;;;;;;;13.05;10.00;;;;;;;12.20;100.00;101085.34;5198098;28;20429;-65
2022/06/07 02:20:29;;;;;;;14.60;10.30;;;;;;;12.23;100.00;101086.94;5211669;28;20044;-65
2022/06/07 02:23:02;;;;;;;14.52;10.23;;;;;;;12.18;100.00;101086.44;5214269;28;20022;-65
2022/06/07 02:25:41;;;;;;;15.05;9.63;;;;;;;12.10;100.00;101084.38;5217622;28;20091;-65
2022/06/07 02:28:15;;;;;;;10.82;8.30;;;;;;;12.24;100.00;101086.81;5215725;28;20046;-66
2022/06/07 02:30:47;;;;;;;16.15;9.45;;;;;;;12.13;100.00;101084.13;5216251;28;20029;-65
2022/06/07 02:33:18;;;;;;;12.98;9.55;;;;;;;12.12;100.00;101080.63;5203659;28;20092;-65
2022/06/07 02:35:50;;;;;;;14.07;8.50;;;;;;;12.06;100.00;101077.56;5210073;28;20471;-65
2022/06/07 02:38:22;;;;;;;11.50;8.40;;;;;;;12.07;100.00;101081.94;5212086;28;20069;-66
2022/06/07 02:40:54;;;;;;;12.10;8.80;;;;;;;12.11;100.00;101078.06;5217053;28;20029;-66
2022/06/07 02:43:28;;;;;;;13.70;8.00;;;;;;;12.13;100.00;101071.59;5212135;28;20028;-65
2022/06/07 02:45:59;;;;;;;12.38;7.60;;;;;;;12.06;100.00;101067.72;5199699;28;20022;-66
2022/06/07 02:48:30;;;;;;;10.57;6.90;;;;;;;12.00;100.00;101076.22;5213575;28;20024;-65
2022/06/07 02:51:02;;;;;;;9.95;7.53;;;;;;;12.07;100.00;101072.09;5208843;28;20554;-66
2022/06/07 02:53:33;;;;;;;11.05;7.50;;;;;;;12.07;100.00;101076.59;5210302;28;20392;-65
2022/06/07 02:56:05;;;;;;;11.35;6.88;;;;;;;11.98;100.00;101069.31;5210048;28;20030;-65
2022/06/07 02:58:36;;;;;;;11.07;7.20;;;;;;;12.10;100.00;101071.00;5207169;28;20018;-66
2022/06/07 03:01:08;;;;;;;8.27;6.95;;;;;;;12.11;100.00;101062.00;5199764;28;20085;-65
2022/06/07 03:03:39;;;;;;;9.18;6.35;;;;;;;11.95;100.00;101065.91;5211704;28;20626;-65
2022/06/07 03:06:11;;;;;;;10.35;6.63;;;;;;;12.00;100.00;101064.69;5216943;28;20439;-66
2022/06/07 03:08:43;;;;;;;10.00;6.93;;;;;;;12.00;100.00;101067.34;5216332;28;20080;-65
2022/06/07 03:11:14;;;;;;;11.30;5.88;;;;;;;11.98;100.00;101069.31;5209517;28;20033;-65
2022/06/07 03:13:46;;;;;;;7.68;5.75;;;;;;;11.94;100.00;101076.72;5212422;28;20022;-65
2022/06/07 03:16:17;;;;;;;9.77;6.30;;;;;;;11.96;100.00;101085.47;5208585;28;20026;-66
2022/06/07 03:18:49;;;;;;;8.93;6.32;;;;;;;11.99;100.00;101093.25;5209911;28;20716;-65
2022/06/07 03:21:21;;;;;;;8.95;6.45;;;;;;;11.95;100.00;101089.13;5211921;28;20068;-65
2022/06/07 03:23:52;;;;;;;10.02;6.55;;;;;;;12.00;100.00;101094.94;5212552;28;20583;-65
2022/06/07 03:26:23;;;;;;;8.88;5.88;;;;;;;12.00;100.00;101099.44;5215022;28;20026;-66
2022/06/07 03:28:55;;;;;;;11.90;6.80;;;;;;;11.94;100.00;101093.59;5204472;28;20053;-66
2022/06/07 03:31:29;;;;;;;10.52;5.85;;;;;;;11.96;100.00;101086.31;5215485;28;20092;-66
2022/06/07 03:34:00;;;;;;;;;;;;;;;12.03;100.00;101092.03;5225402;28;20076;-66
2022/06/07 03:36:32;;;;;;;9.60;6.32;;;;;;;11.93;100.00;101085.72;5212369;28;19917;-67
2022/06/07 03:39:07;;;;;;;9.85;6.38;;;;;;;11.90;100.00;101093.97;5213520;28;20030;-65
2022/06/07 03:41:38;;;;;;;9.05;5.88;;;;;;;11.95;100.00;101105.16;5216048;28;20033;-65
2022/06/07 03:44:10;;;;;;;9.95;5.82;;;;;;;11.89;100.00;101100.25;5210804;28;20564;-66
2022/06/07 03:46:44;;;;;;;9.55;6.05;;;;;;;12.05;100.00;101113.31;5209137;28;20022;-66
2022/06/07 03:49:15;;;;;;;7.93;5.40;;;;;;;12.02;100.00;101109.03;5213154;28;20480;-66
2022/06/07 03:51:47;;;;;;;9.80;5.95;;;;;;;11.99;100.00;101108.44;5202043;28;20030;-66
2022/06/07 03:54:19;;;;;;;8.05;6.50;;;;;;;12.04;100.00;101103.56;5202247;28;20101;-65
2022/06/07 03:56:50;;;;;;;8.27;6.03;;;;;;;11.95;100.00;101107.84;5202783;28;20477;-66
2022/06/07 03:59:22;;;;;;;8.32;6.18;;;;;;;12.04;100.00;101115.16;5216263;28;20068;-66
2022/06/07 04:01:53;;;;;;;7.82;5.85;;;;;;;12.00;100.00;101118.16;5213878;28;20441;-66
2022/06/07 04:04:25;;;;;;;9.60;5.63;;;;;;;12.00;100.00;101110.13;5208093;28;20019;-66
2022/06/07 04:09:46;;;;;;;10.05;6.03;;;;;;;12.09;100.00;101114.78;5204632;28;20030;-66
2022/06/07 04:12:18;;;;;;;9.35;6.18;;;;;;;12.07;100.00;101116.72;5202152;28;20030;-66
2022/06/07 04:14:49;;;;;;;9.93;6.50;;;;;;;12.04;100.00;101111.59;5206494;28;20026;-66
2022/06/07 04:17:20;;;;;;;9.32;5.88;;;;;;;12.00;100.00;101113.66;5212176;28;20046;-66
2022/06/07 04:19:51;;;;;;;7.50;5.93;;;;;;;12.05;100.00;101116.84;5212290;28;20041;-66
2022/06/07 04:22:23;;;;;;;8.75;6.50;;;;;;;12.00;100.00;101124.34;5213277;28;20058;-66
2022/06/07 04:24:54;;;;;;;9.30;6.90;;;;;;;12.01;100.00;101117.22;5214786;28;20104;-66
2022/06/07 04:27:25;;;;;;;11.10;7.38;;;;;;;12.06;100.00;101121.22;5204605;28;20061;-66
2022/06/07 04:29:56;;;;;;;10.98;6.55;;;;;;;12.10;100.00;101119.13;5209199;28;20029;-66
2022/06/07 04:32:28;;;;;;;10.23;7.00;;;;;;;12.14;100.00;101115.28;5205799;28;20061;-65
2022/06/07 04:34:59;;;;;;;9.35;6.65;;;;;;;12.12;100.00;101122.56;5203357;28;20030;-66
2022/06/07 04:37:30;;;;;;;11.43;6.40;;;;;;;12.11;100.00;101113.66;5197972;28;20037;-66
2022/06/07 04:40:02;;;;;;;7.90;6.25;;;;;;;12.25;100.00;101107.22;5205053;28;20568;-66
2022/06/07 04:42:33;;;;;;;9.85;6.60;;;;;;;12.21;100.00;101121.81;5197887;28;20392;-66
2022/06/07 04:45:09;;;;;;;8.45;6.45;;;;;;;12.27;100.00;101121.34;5199783;28;20030;-65
2022/06/07 04:47:42;;;;;;;10.50;6.43;;;;;;;12.35;100.00;101118.91;5200199;28;20030;-66
2022/06/07 04:50:18;;;;;;;10.98;6.97;;;;;;;12.43;100.00;101118.31;5200794;28;20375;-66
2022/06/07 04:52:49;;;;;;;11.10;6.05;;;;;;;12.46;100.00;101126.06;5205422;28;20065;-65
2022/06/07 04:55:20;;;;;;;10.60;7.57;;;;;;;12.53;100.00;101113.06;5215072;28;20451;-66
2022/06/07 04:57:52;;;;;;;9.75;6.55;;;;;;;12.50;100.00;101122.19;5212517;28;20030;-65
2022/06/07 05:00:23;;;;;;;11.05;7.10;;;;;;;12.60;100.00;101124.97;5215400;28;20139;-65
2022/06/07 05:02:54;;;;;;;10.25;6.93;;;;;;;12.55;100.00;101130.69;5204124;28;20400;-65
2022/06/07 05:05:26;;;;;;;10.95;7.20;;;;;;;12.60;100.00;101129.47;5206001;28;20651;-65
2022/06/07 05:07:57;;;;;;;10.68;6.80;;;;;;;12.75;100.00;101126.41;5203262;28;20030;-65
2022/06/07 05:10:29;;;;;;;10.65;6.72;;;;;;;12.70;100.00;101130.44;5202445;28;20539;-65
2022/06/07 05:13:00;;;;;;;8.80;6.50;;;;;;;12.81;100.00;101137.59;5212366;28;20384;-65
2022/06/07 05:15:32;;;;;;;10.07;7.03;;;;;;;12.70;100.00;101135.78;5212437;28;20072;-66
2022/06/07 05:18:03;;;;;;;12.38;7.32;;;;;;;12.74;100.00;101145.28;5211057;28;20050;-65
2022/06/07 05:20:36;;;;;;;10.65;6.57;;;;;;;12.78;100.00;101145.88;5214177;28;20029;-65
2022/06/07 05:23:08;;;;;;;10.27;6.60;;;;;;;12.85;100.00;101149.78;5213751;28;20438;-65
2022/06/07 05:25:41;;;;;;;10.73;7.85;;;;;;;12.90;100.00;101151.06;5211394;28;20032;-65
2022/06/07 05:28:13;;;;;;;11.85;7.10;;;;;;;12.88;100.00;101149.50;5212258;28;20045;-65
2022/06/07 05:30:45;;;;;;;11.10;7.70;;;;;;;12.87;100.00;101143.31;5213258;28;20068;-65
2022/06/07 05:33:16;;;;;;;14.07;7.60;;;;;;;12.94;100.00;101140.97;5200935;28;20029;-65
2022/06/07 05:35:47;;;;;;;11.15;7.78;;;;;;;13.09;100.00;101144.22;5213554;28;20075;-65
2022/06/07 05:38:21;;;;;;;9.38;7.93;;;;;;;12.98;100.00;101138.88;5203928;28;20032;-65
2022/06/07 05:40:52;;;;;;;11.15;7.70;;;;;;;13.09;100.00;101141.53;5204102;28;20034;-65
2022/06/07 05:43:24;;;;;;;9.40;6.90;;;;;;;13.11;100.00;101143.09;5212334;28;20137;-65
2022/06/07 05:45:56;;;;;;;12.63;7.30;;;;;;;13.15;100.00;101143.72;5203666;28;20037;-66
2022/06/07 05:48:29;;;;;;;11.48;8.55;;;;;;;13.27;100.00;101141.84;5201839;28;20022;-65
2022/06/07 05:51:01;;;;;;;10.15;7.28;;;;;;;13.27;100.00;101147.19;5215070;28;20034;-65
2022/06/07 05:53:32;;;;;;;10.43;8.18;;;;;;;13.23;100.00;101145.75;5214595;28;20400;-66
2022/06/07 05:56:09;;;;;;;13.20;8.27;;;;;;;13.24;100.00;101148.31;5202974;28;20105;-66
2022/06/07 05:58:40;;;;;;;14.00;8.55;;;;;;;13.34;100.00;101154.63;5205983;28;20049;-65
2022/06/07 06:01:12;;;;;;;11.73;8.35;;;;;;;13.26;100.00;101145.50;5217038;28;20041;-65
2022/06/07 06:03:43;;;;;;;13.10;8.52;;;;;;;13.25;100.00;101144.66;5215210;28;20084;-65
2022/06/07 06:06:14;;;;;;;15.93;8.82;;;;;;;13.31;100.00;101146.84;5210913;28;20038;-65
2022/06/07 06:11:36;;;;;;;15.50;8.85;;;;;;;13.65;100.00;101144.03;5201524;28;20034;-64
2022/06/07 06:14:08;;;;;;;15.02;8.82;;;;;;;13.78;100.00;101151.88;5208138;28;20021;-65
2022/06/07 06:16:39;;;;;;;13.57;8.35;;;;;;;13.83;100.00;101151.50;5213483;28;20049;-65
2022/06/07 06:19:11;;;;;;;14.10;9.95;;;;;;;13.90;100.00;101150.84;5213813;28;20029;-64
2022/06/07 06:21:43;;;;;;;14.73;8.80;;;;;;;14.07;100.00;101153.88;5206222;28;20031;-65
2022/06/07 06:24:17;;;;;;;15.02;9.98;;;;;;;14.16;100.00;101160.28;5212687;28;20113;-65
2022/06/07 06:26:48;;;;;;;13.43;8.80;;;;;;;14.30;100.00;101146.50;5200056;28;20038;-64
2022/06/07 06:29:20;;;;;;;15.55;9.07;;;;;;;14.36;100.00;101147.81;5215732;28;20511;-65
2022/06/07 06:31:51;;;;;;;15.25;10.00;;;;;;;14.52;100.00;101150.84;5216239;28;20026;-65
2022/06/07 06:34:23;;;;;;;11.70;9.25;;;;;;;14.57;100.00;101145.94;5200956;28;20374;-64
2022/06/07 06:36:55;;;;;;;15.60;10.57;;;;;;;14.61;100.00;101136.66;5199802;28;20080;-65
2022/06/07 06:39:27;;;;;;;15.57;10.30;;;;;;;14.67;100.00;101146.84;5216399;28;20026;-66
2022/06/07 06:41:58;;;;;;;16.05;10.88;;;;;;;14.73;100.00;101144.56;5211667;28;20037;-65
2022/06/07 06:44:29;;;;;;;13.38;10.05;;;;;;;14.81;100.00;101145.59;5215435;28;20439;-64
2022/06/07 06:47:01;;;;;;;13.40;10.48;;;;;;;14.85;100.00;101140.81;5208865;28;20022;-65
2022/06/07 06:49:32;;;;;;;14.55;11.23;;;;;;;14.95;100.00;101147.03;5213837;28;20064;-65
2022/06/07 06:52:04;;;;;;;15.65;10.63;;;;;;;14.93;100.00;101138.25;5209712;28;20409;-65
2022/06/07 06:54:37;;;;;;;13.60;10.85;;;;;;;14.98;100.00;101154.84;5210570;28;20033;-65
2022/06/07 06:57:08;;;;;;;16.05;11.30;;;;;;;15.18;100.00;101154.84;5212431;28;20033;-65
2022/06/07 06:59:39;;;;;;;14.02;10.73;;;;;;;15.32;100.00;101161.66;5210396;28;20026;-65
2022/06/07 07:02:12;;;;;;;16.98;10.75;;;;;;;15.37;100.00;101162.94;5200266;28;20037;-65
2022/06/07 07:04:43;;;;;;;14.55;10.35;;;;;;;15.65;99.50;101173.84;5206180;28;20029;-65
2022/06/07 07:07:14;;;;;;;14.30;10.68;;;;;;;15.77;98.58;101156.56;5208494;28;20052;-65
2022/06/07 07:09:47;;;;;;;13.23;10.05;;;;;;;15.95;97.97;101174.69;5208391;28;20386;-65
2022/06/07 07:12:18;;;;;;;14.82;11.20;;;;;;;15.94;97.54;101163.06;5211411;28;20068;-65
2022/06/07 07:14:49;;;;;;;14.50;10.30;;;;;;;15.94;95.83;101157.69;5213589;28;20021;-65
2022/06/07 07:17:21;;;;;;;15.55;10.82;;;;;;;15.93;98.26;101163.22;5198944;28;20137;-65
2022/06/07 07:19:54;;;;;;;17.08;11.80;;;;;;;15.94;94.51;101162.22;5213908;28;20038;-66
2022/06/07 07:22:25;;;;;;;12.90;11.15;;;;;;;15.93;95.07;101163.22;5216548;28;20458;-66
2022/06/07 07:24:57;;;;;;;16.52;11.75;;;;;;;15.91;94.13;101165.19;5204314;28;20126;-65
2022/06/07 07:27:29;;;;;;;17.88;11.88;;;;;;;15.94;96.02;101157.69;5198181;28;20054;-65
2022/06/07 07:30:00;;;;;;;15.95;11.63;;;;;;;16.07;97.85;101162.78;5200341;28;20081;-66
2022/06/07 07:32:31;;;;;;;15.95;11.57;;;;;;;16.32;96.35;101158.59;5197687;28;20053;-65
2022/06/07 07:35:03;;;;;;;15.35;11.30;;;;;;;16.49;96.00;101156.09;5211649;28;20072;-66
2022/06/07 07:37:35;;;;;;;18.30;11.43;;;;;;;16.62;93.01;101154.75;5203986;28;20034;-65
2022/06/07 07:40:07;;;;;;;14.63;12.43;;;;;;;16.80;92.12;101154.81;5202914;28;20323;-65
2022/06/07 07:42:38;;;;;;;15.23;11.93;;;;;;;16.84;91.33;101158.94;5211681;28;21360;-66
2022/06/07 07:45:12;;;;;;;17.85;13.25;;;;;;;16.86;90.98;101161.47;5199311;28;20106;-66
2022/06/07 07:47:43;;;;;;;14.85;11.32;;;;;;;16.79;90.96;101160.34;5204133;28;20037;-66
2022/06/07 07:50:15;;;;;;;15.75;11.15;;;;;;;16.70;90.16;101151.28;5213324;28;20026;-66
2022/06/07 07:52:47;;;;;;;16.65;11.20;;;;;;;16.70;90.95;101151.28;5194970;28;20488;-66
2022/06/07 07:55:18;;;;;;;16.33;11.63;;;;;;;16.80;91.12;101154.81;5212538;28;20037;-65
2022/06/07 07:57:49;;;;;;;17.15;11.45;;;;;;;16.93;92.30;101149.09;5210680;28;20400;-66
2022/06/07 08:00:21;;;;;;;14.60;11.18;;;;;;;17.11;93.01;101153.66;5205232;28;20053;-66
2022/06/07 08:02:52;;;;;;;16.05;11.45;;;;;;;17.22;91.01;101158.81;5212932;28;20037;-66
2022/06/07 08:05:23;;;;;;;14.40;12.80;;;;;;;17.12;87.73;101158.03;5214803;28;20026;-65
2022/06/07 08:07:55;;;;;;;14.27;11.55;;;;;;;17.23;87.79;101149.72;5213891;28;20068;-65
2022/06/07 08:10:29;;;;;;;15.23;10.95;;;;;;;17.31;88.55;101149.81;5214119;28;20083;-65
2022/06/07 08:13:01;;;;;;;13.20;11.38;;;;;;;17.47;89.55;101156.34;5195269;28;20062;-66
2022/06/07 08:15:33;;;;;;;15.77;11.75;;;;;;;17.59;89.50;101157.81;5213113;28;20053;-66
2022/06/07 08:18:05;;;;;;;15.02;12.15;;;;;;;17.72;87.77;101160.97;5205424;28;20053;-66
2022/06/07 08:20:37;;;;;;;16.05;13.13;;;;;;;18.05;88.38;101165.78;5199378;28;20037;-66
2022/06/07 08:23:09;;;;;;;14.80;12.98;;;;;;;18.11;83.72;101160.59;5197120;28;20160;-65
2022/06/07 08:25:40;;;;;;;14.05;12.02;;;;;;;18.12;82.22;101151.50;5207463;28;20083;-66
2022/06/07 08:28:11;;;;;;;20.15;15.45;;;;;;;18.21;82.50;101150.53;5205570;28;20022;-65
2022/06/07 08:30:46;;;;;;;17.85;15.70;;;;;;;18.30;83.64;101156.81;5208188;28;20022;-65
2022/06/07 08:39:01;;;;;;;14.90;12.70;;;;;;;18.22;79.68;101149.53;5206920;28;20042;-66
2022/06/07 08:41:34;;;;;;;15.68;13.05;;;;;;;18.14;82.24;101151.31;5208001;28;20042;-66
2022/06/07 08:44:12;;;;;;;14.63;12.27;;;;;;;18.03;83.87;101155.16;5205608;28;20227;-65
2022/06/07 08:46:43;;;;;;;14.70;12.20;;;;;;;17.90;81.06;101144.75;5203769;28;20030;-65
2022/06/07 08:49:22;;;;;;;16.55;12.40;;;;;;;17.99;85.14;101148.38;5203206;28;20030;-65
2022/06/07 08:52:07;;;;;;;15.20;12.32;;;;;;;18.01;83.29;101141.81;5198895;28;20029;-65
2022/06/07 08:54:40;;;;;;;14.73;13.23;;;;;;;18.03;82.16;101139.78;5205748;28;20077;-66
2022/06/07 08:57:24;;;;;;;14.10;12.80;;;;;;;18.37;80.73;101148.91;5205495;28;20117;-66
2022/06/07 09:00:05;;;;;;;13.33;11.23;;;;;;;18.64;79.82;101139.78;5208798;28;20300;-66
2022/06/07 09:03:14;;;;;;;16.63;12.90;;;;;;;18.73;81.66;101141.47;5209359;28;20371;-65
2022/06/07 09:05:58;;;;;;;14.25;12.80;;;;;;;18.72;78.70;101138.97;5210782;28;20045;-66
2022/06/07 09:08:44;;;;;;;19.70;13.18;;;;;;;18.70;77.24;101138.28;5198892;28;20109;-65
2022/06/07 09:14:29;;;;;;;12.55;11.25;;;;;;;18.93;80.69;101136.69;5198401;28;20026;-66
2022/06/07 09:17:05;;;;;;;11.85;10.55;;;;;;;18.89;77.31;101140.72;5208965;28;20487;-66
2022/06/07 09:19:38;;;;;;;12.57;11.35;;;;;;;18.88;75.56;101138.19;5198592;28;20029;-66
2022/06/07 09:22:29;;;;;;;12.07;10.88;;;;;;;18.84;78.39;101144.94;5201439;28;20026;-66
2022/06/07 09:25:06;;;;;;;12.93;11.27;;;;;;;18.70;77.00;101136.41;5212883;28;20038;-65
2022/06/07 09:27:38;;;;;;;13.68;12.18;;;;;;;18.80;75.73;101137.13;5209249;28;20332;-66
2022/06/07 09:30:26;;;;;;;14.18;12.35;;;;;;;19.02;78.90;101134.81;5210615;28;20642;-66
2022/06/07 09:33:06;;;;;;;12.00;10.70;;;;;;;19.26;79.74;101141.31;5207377;28;20037;-65
2022/06/07 09:35:41;;;;;;;12.95;9.50;;;;;;;19.24;74.19;101129.81;5210448;28;20026;-65
2022/06/07 09:38:32;;;;;;;14.57;10.18;;;;;;;19.27;75.00;101133.03;5203822;28;20038;-66
2022/06/07 09:41:39;;;;;;;13.57;9.10;;;;;;;19.34;73.65;101128.63;5199281;28;20030;-65
2022/06/07 09:44:16;;;;;;;9.15;8.20;;;;;;;19.62;74.23;101135.56;5207838;28;20152;-65
2022/06/07 09:47:12;;;;;;;13.02;8.18;;;;;;;19.65;73.02;101136.06;5214679;28;20030;-65
2022/06/07 09:49:55;;;;;;;10.63;7.60;;;;;;;19.66;71.48;101135.06;5208609;28;20025;-65
2022/06/07 09:52:41;;;;;;;8.80;7.90;;;;;;;19.70;74.51;101122.88;5213253;28;20026;-66
2022/06/07 09:55:16;;;;;;;8.20;7.18;;;;;;;19.88;74.58;101132.69;5213456;28;20037;-65
2022/06/07 09:58:02;;;;;;;8.82;6.70;;;;;;;19.88;70.35;101128.13;5207469;28;20577;-66
2022/06/07 10:00:47;;;;;;;8.05;5.88;;;;;;;19.88;74.24;101132.69;5206114;28;20033;-69
2022/06/07 10:03:28;;;;;;;;;;;;;;;20.00;74.57;101122.34;5200085;28;20488;-66
2022/06/07 10:06:13;;;;;;;7.95;6.03;;;;;;;19.88;70.03;101124.56;5205291;28;19929;-67
2022/06/07 10:09:24;;;;;;;7.00;5.53;;;;;;;19.78;74.06;101124.75;5203852;28;20025;-64
2022/06/07 10:12:13;;;;;;;7.00;4.90;;;;;;;19.69;74.82;101120.34;5206369;28;20025;-64
2022/06/07 10:14:51;;;;;;;9.07;7.05;;;;;;;19.47;70.41;101124.59;5199317;28;20041;-64
2022/06/07 10:17:43;;;;;;;7.88;6.05;;;;;;;19.53;68.89;101118.50;5206454;28;20050;-64
2022/06/07 10:20:28;;;;;;;6.85;4.25;;;;;;;19.71;70.17;101116.47;5208051;28;20026;-64
2022/06/07 10:23:23;;;;;;;6.05;4.10;;;;;;;19.67;68.56;101106.97;5210192;28;20025;-64
2022/06/07 10:26:19;;;;;;;8.10;4.32;;;;;;;19.82;69.16;101114.44;5204136;28;20025;-64
2022/06/07 10:29:12;;;;;;;6.93;5.03;;;;;;;19.75;69.88;101112.41;5205351;28;20076;-64
2022/06/07 10:31:55;;;;;;;7.38;4.82;;;;;;;19.74;68.96;101108.00;5201339;28;20042;-64
2022/06/07 10:34:38;;;;;;;9.02;5.10;;;;;;;19.70;68.20;101105.78;5203381;28;20030;-64
2022/06/07 10:37:31;;;;;;;8.05;4.70;;;;;;;19.63;72.75;101110.19;5206196;28;20435;-64
2022/06/07 10:40:29;;;;;;;6.30;4.40;;;;;;;19.55;71.85;101113.75;5205348;28;20041;-63
2022/06/07 10:43:25;;;;;;;8.00;3.47;;;;;;;19.41;71.07;101107.16;5206787;28;20022;-64
2022/06/07 10:46:00;;;;;;;7.47;3.63;;;;;;;19.34;68.59;101116.97;5204060;28;20109;-64
2022/06/07 10:48:46;;;;;;;7.20;3.83;;;;;;;19.43;69.61;101102.41;5205971;28;20025;-64
2022/06/07 10:55:01;;;;;;;8.35;4.88;;;;;;;19.55;68.21;101103.75;5206657;28;20396;-65
2022/06/07 10:57:55;;;;;;;6.63;4.00;;;;;;;19.81;67.84;101101.91;5205593;28;20064;-64
2022/06/07 11:00:45;;;;;;;6.80;3.97;;;;;;;19.79;68.43;101099.38;5203700;28;20368;-64
2022/06/07 11:03:26;;;;;;;8.13;3.83;;;;;;;19.75;68.78;101100.72;5204332;28;20033;-64
2022/06/07 11:09:38;;;;;;;4.88;2.92;;;;;;;20.23;68.14;101096.22;5205817;28;20404;-64
2022/06/07 11:12:16;;;;;;;6.65;3.08;;;;;;;20.57;66.63;101090.47;5203998;28;20037;-64
2022/06/07 11:15:05;;;;;;;4.47;2.70;;;;;;;20.75;65.46;101100.25;5203617;28;20827;-64
2022/06/07 11:17:42;;;;;;;5.30;2.53;;;;;;;20.91;62.19;101091.19;5202787;28;20049;-64
2022/06/07 11:20:16;;;;;;;4.65;2.53;;;;;;;21.07;62.45;101099.19;5205538;28;20096;-64
2022/06/07 11:22:53;;;;;;;6.05;2.35;;;;;;;21.17;60.57;101096.25;5203746;28;20030;-64
2022/06/07 11:25:41;;;;;;;6.45;2.00;;;;;;;21.18;61.53;101088.97;5208404;28;20038;-64
2022/06/07 11:28:20;;;;;;;5.68;2.10;;;;;;;21.37;62.67;101096.59;5207483;28;20034;-64
2022/06/07 11:30:53;;;;;;;4.20;2.00;;;;;;;21.54;62.63;101091.91;5206912;28;20029;-64
2022/06/07 11:33:58;;;;;;;5.72;2.10;;;;;;;21.67;63.67;101089.41;5209442;28;20034;-64
2022/06/07 11:36:35;;;;;;;5.32;1.90;;;;;;;21.73;62.49;101091.38;5206480;28;20045;-64
2022/06/07 11:39:30;;;;;;;4.90;2.10;;;;;;;21.80;57.31;101093.34;5207604;28;20034;-64
2022/06/07 11:42:11;;;;;;;4.97;1.60;;;;;;;21.72;65.39;101094.28;5210070;28;20030;-65
2022/06/07 11:44:42;;;;;;;4.22;1.60;;;;;;;21.83;66.20;101091.13;5205137;28;20030;-64
2022/06/07 11:47:14;;;;;;;4.60;1.50;;;;;;;21.79;59.38;101087.09;5200161;28;20029;-65
2022/06/07 11:49:46;;;;;;;5.53;1.65;;;;;;;21.67;62.10;101089.41;5210659;28;20135;-65
2022/06/07 11:52:25;;;;;;;3.88;1.70;;;;;;;21.79;61.20;101083.53;5205503;28;20144;-64
2022/06/07 11:55:08;;;;;;;4.18;1.80;;;;;;;21.74;61.34;101084.91;5202848;28;20109;-64
2022/06/07 11:57:58;;;;;;;5.53;2.13;;;;;;;21.96;60.66;101087.75;5202968;28;20022;-65
2022/06/07 12:00:29;;;;;;;5.32;1.85;;;;;;;21.76;57.63;101083.91;5207836;28;20034;-64
2022/06/07 12:03:00;;;;;;;3.72;1.55;;;;;;;21.83;58.20;101077.53;5200839;28;20030;-64
2022/06/07 12:05:40;;;;;;;4.68;1.73;;;;;;;22.06;62.26;101082.88;5198674;28;20137;-65
2022/06/07 12:08:32;;;;;;;4.70;2.40;;;;;;;22.23;60.47;101077.28;5208905;28;20026;-64
2022/06/07 12:11:22;;;;;;;4.07;1.83;;;;;;;22.11;60.15;101077.75;5195343;28;20061;-64
2022/06/07 12:13:56;;;;;;;4.03;1.20;;;;;;;22.38;62.01;101082.69;5201677;28;20057;-64
2022/06/07 12:16:33;;;;;;;2.65;1.33;;;;;;;22.39;62.70;101085.25;5203652;28;20030;-64